Time;durP1;ratioP1;P1;durP2;ratioP2;P2;SDS_P1;SDS_P2;PMS_P1;PMS_P2;Temp;Humidity;BMP_temperature;BMP_pressure;BME280_temperature;BME280_humidity;BME280_pressure;Samples;Min_cycle;Max_cycle;Signal;HPM_P1;HPM_P2
2023/10/02 07:23:30;;;;;;;23.48;12.43;;;;;;;;;;4996273;28;20052;-90
2023/10/02 07:25:56;;;;;;;21.38;12.60;;;;;;;;;;4996973;28;20046;-90
2023/10/02 07:28:23;;;;;;;21.85;12.40;;;;;;;;;;4997041;28;20057;-90
2023/10/02 07:30:53;;;;;;;21.85;12.27;;;;;;;;;;4996895;28;20109;-90
2023/10/02 07:33:18;;;;;;;;;;;;;;;;;;4996070;28;20118;-90
2023/10/02 07:35:54;;;;;;;21.58;12.18;;;;;;;;;;4996676;28;19957;-90
2023/10/02 07:38:30;;;;;;;24.88;12.93;;;;;;;;;;4997207;28;20101;-90
2023/10/02 07:41:06;;;;;;;23.80;12.48;;;;;;;;;;4996867;28;20396;-91
2023/10/02 07:43:32;;;;;;;27.55;12.88;;;;;;;;;;4996545;28;20469;-91
2023/10/02 07:46:14;;;;;;;22.98;11.75;;;;;;;;;;4996807;28;20034;-91
2023/10/02 07:48:55;;;;;;;21.55;12.43;;;;;;;;;;4997212;28;20052;-89
2023/10/02 07:51:30;;;;;;;25.50;14.63;;;;;;;;;;4996907;28;20022;-91
2023/10/02 07:53:56;;;;;;;25.50;11.90;;;;;;;;;;4996434;28;20118;-89
2023/10/02 07:56:24;;;;;;;23.48;12.35;;;;;;;;;;4996591;28;20041;-91
2023/10/02 07:58:55;;;;;;;23.30;12.30;;;;;;;;;;4996900;28;20022;-91
2023/10/02 08:01:23;;;;;;;25.90;12.95;;;;;;;;;;4996607;28;20037;-91
2023/10/02 08:03:49;;;;;;;22.70;11.93;;;;;;;;;;4997191;28;20053;-91
2023/10/02 08:06:33;;;;;;;25.80;12.77;;;;;;;;;;4996235;28;20461;-92
2023/10/02 08:11:54;;;;;;;23.67;12.95;;;;;;;;;;4996690;28;20057;-82
2023/10/02 08:14:42;;;;;;;21.73;12.95;;;;;;;;;;4997197;28;20110;-91
2023/10/02 08:19:54;;;;;;;23.65;12.80;;;;;;;;;;4995990;28;20272;-90
2023/10/02 08:22:23;;;;;;;24.17;12.48;;;;;;;;;;4995763;28;20121;-87
2023/10/02 08:24:52;;;;;;;24.98;12.75;;;;;;;;;;5011132;28;20084;-86
2023/10/02 08:27:18;;;;;;;23.27;12.48;;;;;;;;;;4996180;28;20045;-83
2023/10/02 08:29:44;;;;;;;26.25;13.20;;;;;;;;;;4995628;28;20026;-86
2023/10/02 08:32:10;;;;;;;22.48;12.65;;;;;;;;;;4995522;28;20084;-90
2023/10/02 08:34:36;;;;;;;22.67;12.63;;;;;;;;;;4995215;28;20030;-88
2023/10/02 08:37:07;;;;;;;25.95;13.45;;;;;;;;;;4978134;28;20038;-88
2023/10/02 08:39:34;;;;;;;21.85;12.55;;;;;;;;;;4995416;28;20050;-89
2023/10/02 08:42:08;;;;;;;21.52;11.40;;;;;;;;;;4995735;28;20057;-90
2023/10/02 08:44:37;;;;;;;23.42;12.13;;;;;;;;;;4995770;28;20026;-88
2023/10/02 08:47:24;;;;;;;24.23;13.27;;;;;;;;;;4995442;28;20409;-90
2023/10/02 08:50:03;;;;;;;23.88;13.85;;;;;;;;;;4995605;28;20027;-89
2023/10/02 08:52:38;;;;;;;;;;;;;;;;;;4995812;28;20023;-87
2023/10/02 08:58:16;;;;;;;25.00;13.43;;;;;;;;;;4995355;28;20037;-88
2023/10/02 09:06:53;;;;;;;23.90;13.45;;;;;;;;;;4962083;28;20495;-87
2023/10/02 09:09:27;;;;;;;25.20;12.77;;;;;;;;;;4995078;28;20078;-90
2023/10/02 09:11:57;;;;;;;23.27;12.40;;;;;;;;;;4995269;28;20026;-89
2023/10/02 09:14:39;;;;;;;24.35;14.23;;;;;;;;;;4994782;28;20033;-87
2023/10/02 09:19:57;;;;;;;24.05;12.93;;;;;;;;;;4994953;28;20058;-87
2023/10/02 09:22:25;;;;;;;21.65;12.85;;;;;;;;;;4994694;28;20046;-88
2023/10/02 09:25:10;;;;;;;23.88;12.23;;;;;;;;;;4994363;28;20061;-89
2023/10/02 09:27:52;;;;;;;21.58;13.15;;;;;;;;;;4993642;28;20393;-87
2023/10/02 09:30:21;;;;;;;22.73;13.23;;;;;;;;;;4994891;28;20346;-88
2023/10/02 09:32:51;;;;;;;23.30;13.02;;;;;;;;;;4993308;28;20496;-85
2023/10/02 09:35:32;;;;;;;22.52;12.32;;;;;;;;;;4994416;28;20041;-89
2023/10/02 09:38:04;;;;;;;20.67;12.07;;;;;;;;;;4993222;28;20076;-88
2023/10/02 09:40:54;;;;;;;23.27;12.98;;;;;;;;;;4994697;28;20027;-89
2023/10/02 09:43:24;;;;;;;21.60;12.63;;;;;;;;;;4994890;28;20026;-90
2023/10/02 09:45:53;;;;;;;22.77;12.60;;;;;;;;;;4994844;28;20104;-89
2023/10/02 09:51:28;;;;;;;23.77;12.93;;;;;;;;;;4994141;28;20033;-83
2023/10/02 09:54:08;;;;;;;27.58;13.25;;;;;;;;;;4994367;28;20045;-90
2023/10/02 09:57:13;;;;;;;24.38;13.73;;;;;;;;;;4994373;28;20442;-90
2023/10/02 09:59:46;;;;;;;25.33;13.57;;;;;;;;;;4994660;28;20034;-90
2023/10/02 10:07:52;;;;;;;27.52;13.68;;;;;;;;;;4993866;28;20030;-84
2023/10/02 10:10:57;;;;;;;24.67;12.27;;;;;;;;;;4994462;28;20114;-90
2023/10/02 10:13:50;;;;;;;26.00;13.40;;;;;;;;;;4995319;28;20027;-91
2023/10/02 10:16:19;;;;;;;24.60;13.75;;;;;;;;;;4994338;28;20514;-93
2023/10/02 10:21:56;;;;;;;26.50;13.77;;;;;;;;;;4994657;28;20481;-94
2023/10/02 10:24:33;;;;;;;27.77;14.57;;;;;;;;;;4994947;28;20031;-91
2023/10/02 10:27:00;;;;;;;26.90;15.00;;;;;;;;;;4995671;28;20046;-92
2023/10/02 10:29:42;;;;;;;25.75;14.63;;;;;;;;;;5009238;28;20489;-90
2023/10/02 10:32:24;;;;;;;27.77;14.25;;;;;;;;;;4995195;28;20026;-84
2023/10/02 10:35:12;;;;;;;23.88;13.98;;;;;;;;;;4994204;28;20073;-93
2023/10/02 10:37:48;;;;;;;23.60;13.38;;;;;;;;;;4998564;28;20056;-90
2023/10/02 10:40:50;;;;;;;28.98;15.00;;;;;;;;;;4996626;28;20031;-93
2023/10/02 10:43:16;;;;;;;27.45;14.57;;;;;;;;;;4999216;28;20082;-95
2023/10/02 10:45:44;;;;;;;27.52;15.07;;;;;;;;;;4998322;28;20113;-94
2023/10/02 10:48:22;;;;;;;31.23;15.27;;;;;;;;;;4997134;28;20028;-92
2023/10/02 10:50:59;;;;;;;28.65;15.38;;;;;;;;;;4998531;28;20030;-95
2023/10/02 10:53:29;;;;;;;26.60;14.57;;;;;;;;;;4998667;28;20481;-93
2023/10/02 10:56:17;;;;;;;25.50;14.73;;;;;;;;;;4996779;28;20061;-93
2023/10/02 10:58:47;;;;;;;25.00;14.10;;;;;;;;;;4998275;28;20026;-93
2023/10/02 11:01:17;;;;;;;26.38;14.93;;;;;;;;;;4998677;28;20034;-91
2023/10/02 11:03:43;;;;;;;28.63;14.82;;;;;;;;;;4998990;28;20029;-88
2023/10/02 11:06:10;;;;;;;28.48;14.60;;;;;;;;;;4997751;28;20438;-87
2023/10/02 11:08:37;;;;;;;26.85;15.50;;;;;;;;;;4997467;28;20050;-88
2023/10/02 11:11:11;;;;;;;31.02;15.70;;;;;;;;;;4997179;28;20485;-86
2023/10/02 11:13:50;;;;;;;27.25;15.23;;;;;;;;;;4997244;28;20030;-89
2023/10/02 11:16:31;;;;;;;29.25;14.90;;;;;;;;;;4997021;28;20056;-89
2023/10/02 11:19:14;;;;;;;26.83;15.18;;;;;;;;;;4997431;28;20030;-89
2023/10/02 11:22:19;;;;;;;29.17;15.27;;;;;;;;;;4997124;28;20046;-87
2023/10/02 11:24:52;;;;;;;32.83;16.40;;;;;;;;;;4990627;28;20050;-87
2023/10/02 11:27:18;;;;;;;31.60;15.63;;;;;;;;;;4996936;28;20019;-87
2023/10/02 11:30:01;;;;;;;27.20;15.43;;;;;;;;;;4997092;28;20018;-85
2023/10/02 11:33:05;;;;;;;27.13;14.93;;;;;;;;;;4997114;28;20027;-83
2023/10/02 11:35:37;;;;;;;28.00;15.45;;;;;;;;;;4956046;29;20574;-87
2023/10/02 11:38:07;;;;;;;28.25;14.50;;;;;;;;;;4955779;29;20042;-87
2023/10/02 11:40:35;;;;;;;29.42;15.27;;;;;;;;;;4956028;29;20031;-87
2023/10/02 11:43:01;;;;;;;33.10;15.23;;;;;;;;;;4956423;29;20066;-87
2023/10/02 11:45:28;;;;;;;28.58;15.65;;;;;;;;;;4957399;29;20549;-87
2023/10/02 11:47:54;;;;;;;28.80;14.48;;;;;;;;;;4955365;28;20371;-84
2023/10/02 11:50:19;;;;;;;28.55;15.85;;;;;;;;;;4956570;29;20037;-88
2023/10/02 11:52:45;;;;;;;28.38;15.30;;;;;;;;;;4956145;29;20431;-87
2023/10/02 11:55:10;;;;;;;26.30;15.32;;;;;;;;;;4955831;29;20045;-86
2023/10/02 11:57:37;;;;;;;25.90;15.18;;;;;;;;;;4955708;29;20035;-85
2023/10/02 12:00:08;;;;;;;29.10;14.73;;;;;;;;;;4956470;29;20102;-85
2023/10/02 12:02:34;;;;;;;26.63;14.65;;;;;;;;;;4955779;29;20035;-87
2023/10/02 12:05:00;;;;;;;27.95;16.00;;;;;;;;;;4955834;29;20035;-87
2023/10/02 12:07:25;;;;;;;30.70;15.57;;;;;;;;;;5010823;28;20038;-86
2023/10/02 12:09:52;;;;;;;30.38;15.60;;;;;;;;;;4996374;28;20030;-87
2023/10/02 12:12:17;;;;;;;28.25;15.82;;;;;;;;;;4996177;28;20041;-87
2023/10/02 12:14:43;;;;;;;27.15;15.10;;;;;;;;;;4995808;28;20477;-86
2023/10/02 12:17:11;;;;;;;26.13;15.07;;;;;;;;;;4995866;28;20023;-86
2023/10/02 12:19:39;;;;;;;28.73;15.90;;;;;;;;;;4995852;28;20347;-86
2023/10/02 12:22:06;;;;;;;25.90;14.70;;;;;;;;;;4995767;28;20050;-85
2023/10/02 12:24:36;;;;;;;29.80;14.63;;;;;;;;;;4995614;28;20026;-86
2023/10/02 12:27:02;;;;;;;28.65;14.55;;;;;;;;;;4995942;28;20508;-86
2023/10/02 12:29:29;;;;;;;24.77;14.30;;;;;;;;;;4996016;28;20037;-85
2023/10/02 12:31:59;;;;;;;22.40;14.23;;;;;;;;;;4994278;28;20022;-86
2023/10/02 12:34:25;;;;;;;26.95;15.38;;;;;;;;;;4995729;28;20132;-85
2023/10/02 12:36:52;;;;;;;25.77;14.65;;;;;;;;;;4995614;28;20026;-86
2023/10/02 12:39:17;;;;;;;25.48;13.75;;;;;;;;;;4995572;28;20022;-86
2023/10/02 12:41:43;;;;;;;29.10;14.18;;;;;;;;;;4994160;28;20060;-86
2023/10/02 12:44:08;;;;;;;28.00;15.57;;;;;;;;;;4994136;28;20049;-86
2023/10/02 12:46:43;;;;;;;25.00;14.90;;;;;;;;;;4995392;28;20030;-85
2023/10/02 12:49:09;;;;;;;23.23;13.75;;;;;;;;;;4995466;28;20085;-85
2023/10/02 12:51:34;;;;;;;24.77;15.18;;;;;;;;;;4995284;28;20056;-86
2023/10/02 12:54:00;;;;;;;22.55;14.95;;;;;;;;;;4995354;28;20109;-87
2023/10/02 12:56:25;;;;;;;24.10;14.55;;;;;;;;;;4996628;28;20022;-88
2023/10/02 12:58:52;;;;;;;24.33;14.75;;;;;;;;;;4995588;28;20101;-90
2023/10/02 13:01:19;;;;;;;25.60;14.50;;;;;;;;;;4995456;28;20027;-88
2023/10/02 13:03:45;;;;;;;26.77;14.88;;;;;;;;;;4993878;28;20501;-84
2023/10/02 13:06:12;;;;;;;27.08;14.68;;;;;;;;;;4995130;28;20177;-84
2023/10/02 13:08:42;;;;;;;22.98;14.27;;;;;;;;;;4994966;28;20026;-84
2023/10/02 13:11:12;;;;;;;22.90;13.02;;;;;;;;;;4995191;28;20023;-84
2023/10/02 13:13:46;;;;;;;23.48;14.50;;;;;;;;;;4995207;28;20030;-85
2023/10/02 13:16:14;;;;;;;24.25;14.35;;;;;;;;;;4994733;28;20070;-87
2023/10/02 13:18:40;;;;;;;22.45;13.02;;;;;;;;;;4994860;28;20029;-85
2023/10/02 13:21:07;;;;;;;24.88;14.30;;;;;;;;;;4994885;28;20378;-84
2023/10/02 13:23:33;;;;;;;25.10;13.90;;;;;;;;;;4994754;28;20030;-89
2023/10/02 13:25:58;;;;;;;23.35;13.55;;;;;;;;;;4994597;28;21189;-86
2023/10/02 13:28:24;;;;;;;26.65;14.32;;;;;;;;;;4994977;28;20026;-89
2023/10/02 13:30:52;;;;;;;23.77;13.15;;;;;;;;;;4993790;28;20018;-90
2023/10/02 13:33:20;;;;;;;22.65;13.55;;;;;;;;;;4994844;28;20482;-85
2023/10/02 13:35:54;;;;;;;20.85;12.50;;;;;;;;;;4994474;28;20493;-85
2023/10/02 13:38:19;;;;;;;22.40;13.73;;;;;;;;;;4994560;28;20134;-84
2023/10/02 13:40:45;;;;;;;22.60;12.90;;;;;;;;;;4993175;28;20116;-83
2023/10/02 13:43:11;;;;;;;20.48;12.70;;;;;;;;;;4994441;28;20053;-85
2023/10/02 13:45:36;;;;;;;19.35;12.88;;;;;;;;;;4994317;28;20030;-84
2023/10/02 13:48:04;;;;;;;23.05;13.48;;;;;;;;;;4994821;28;20031;-86
2023/10/02 13:50:32;;;;;;;21.08;13.18;;;;;;;;;;4994748;28;20157;-87
2023/10/02 13:52:59;;;;;;;20.70;13.45;;;;;;;;;;4994448;28;20071;-83
2023/10/02 13:55:26;;;;;;;21.33;13.25;;;;;;;;;;4994021;28;20042;-89
2023/10/02 13:57:54;;;;;;;20.15;12.57;;;;;;;;;;4994587;28;20026;-86
2023/10/02 14:00:20;;;;;;;21.65;13.13;;;;;;;;;;4994000;28;20026;-84
2023/10/02 14:02:54;;;;;;;21.63;13.80;;;;;;;;;;4993717;28;20531;-84
2023/10/02 14:05:19;;;;;;;20.95;12.93;;;;;;;;;;4994124;28;20032;-84
2023/10/02 14:07:46;;;;;;;20.60;12.88;;;;;;;;;;4994079;28;20023;-84
2023/10/02 14:10:16;;;;;;;22.00;13.18;;;;;;;;;;4995410;28;20129;-85
2023/10/02 14:12:43;;;;;;;22.23;12.90;;;;;;;;;;4998009;28;20119;-84
2023/10/02 14:15:19;;;;;;;22.05;13.63;;;;;;;;;;4998119;28;20026;-84
2023/10/02 14:17:49;;;;;;;19.05;13.10;;;;;;;;;;4998176;28;20026;-84
2023/10/02 14:20:15;;;;;;;20.30;13.30;;;;;;;;;;4998241;28;20043;-84
2023/10/02 14:22:51;;;;;;;19.92;13.27;;;;;;;;;;4997812;28;20050;-85
2023/10/02 14:25:17;;;;;;;18.52;13.35;;;;;;;;;;4998052;28;20030;-84
2023/10/02 14:27:45;;;;;;;18.10;12.40;;;;;;;;;;4998361;28;20480;-84
2023/10/02 14:30:12;;;;;;;22.10;13.13;;;;;;;;;;4997899;28;20108;-85
2023/10/02 14:32:48;;;;;;;21.63;13.50;;;;;;;;;;4998041;28;20052;-83
2023/10/02 14:35:15;;;;;;;20.65;13.00;;;;;;;;;;4997574;28;20037;-84
2023/10/02 14:37:42;;;;;;;19.55;12.50;;;;;;;;;;4997988;28;20533;-87
2023/10/02 14:40:10;;;;;;;21.13;14.43;;;;;;;;;;4997590;28;20026;-84
2023/10/02 14:42:37;;;;;;;20.48;12.73;;;;;;;;;;4997624;28;20030;-84
2023/10/02 14:45:03;;;;;;;22.23;13.60;;;;;;;;;;4997304;28;20385;-84
2023/10/02 14:47:31;;;;;;;19.25;12.98;;;;;;;;;;4997467;28;20128;-83
2023/10/02 14:49:58;;;;;;;20.13;13.85;;;;;;;;;;4997577;28;20027;-84
2023/10/02 14:52:24;;;;;;;20.55;13.82;;;;;;;;;;4997727;28;20037;-90
2023/10/02 14:54:52;;;;;;;18.25;13.38;;;;;;;;;;4997325;28;20511;-83
2023/10/02 14:57:19;;;;;;;22.88;13.20;;;;;;;;;;4997298;28;20461;-83
2023/10/02 14:59:45;;;;;;;20.70;14.23;;;;;;;;;;4997539;28;20053;-89
2023/10/02 15:02:11;;;;;;;20.58;14.52;;;;;;;;;;4997521;28;20500;-90
2023/10/02 15:04:37;;;;;;;18.35;13.82;;;;;;;;;;4997288;28;20081;-83
2023/10/02 15:07:05;;;;;;;18.75;13.60;;;;;;;;;;4997166;28;20535;-84
2023/10/02 15:09:31;;;;;;;17.05;12.88;;;;;;;;;;4997106;28;20030;-84
2023/10/02 15:11:57;;;;;;;17.83;13.10;;;;;;;;;;4997156;28;20023;-83
2023/10/02 15:14:23;;;;;;;19.60;12.40;;;;;;;;;;4996991;28;20026;-90
2023/10/02 15:16:49;;;;;;;20.00;14.05;;;;;;;;;;4997123;28;20260;-88
2023/10/02 15:19:14;;;;;;;22.63;15.20;;;;;;;;;;4996969;28;20034;-88
2023/10/02 15:21:40;;;;;;;26.67;15.77;;;;;;;;;;4996084;28;20034;-90
2023/10/02 15:24:07;;;;;;;20.13;14.05;;;;;;;;;;4997048;28;20389;-84
2023/10/02 15:26:33;;;;;;;17.55;12.82;;;;;;;;;;4996704;28;20034;-84
2023/10/02 15:29:00;;;;;;;19.92;13.15;;;;;;;;;;4996976;28;20019;-91
2023/10/02 15:31:25;;;;;;;21.80;14.45;;;;;;;;;;4997089;28;20105;-90
2023/10/02 15:33:52;;;;;;;20.38;13.13;;;;;;;;;;4996941;28;20586;-83
2023/10/02 15:36:18;;;;;;;22.00;13.45;;;;;;;;;;4996635;28;20488;-87
2023/10/02 15:38:45;;;;;;;19.10;13.75;;;;;;;;;;4996572;28;20022;-90
2023/10/02 15:41:27;;;;;;;18.42;13.18;;;;;;;;;;4996711;28;20068;-85
2023/10/02 15:43:53;;;;;;;20.70;13.43;;;;;;;;;;4996408;28;20022;-85
2023/10/02 15:46:18;;;;;;;23.23;13.90;;;;;;;;;;4996577;28;20023;-91
2023/10/02 15:48:44;;;;;;;17.15;12.82;;;;;;;;;;4996431;28;20027;-84
2023/10/02 15:51:14;;;;;;;18.30;13.88;;;;;;;;;;4996151;28;20023;-90
2023/10/02 15:53:40;;;;;;;20.92;13.35;;;;;;;;;;4995268;28;20027;-89
2023/10/02 15:56:16;;;;;;;19.05;14.05;;;;;;;;;;4996064;28;20041;-84
2023/10/02 15:58:42;;;;;;;21.98;14.05;;;;;;;;;;4996479;28;20037;-84
2023/10/02 16:01:08;;;;;;;20.08;13.80;;;;;;;;;;4994838;28;20031;-84
2023/10/02 16:03:34;;;;;;;20.88;14.20;;;;;;;;;;4996097;28;20109;-92
2023/10/02 16:06:06;;;;;;;20.40;14.15;;;;;;;;;;4996122;28;20114;-83
2023/10/02 16:08:32;;;;;;;20.00;14.07;;;;;;;;;;4996162;28;20053;-83
2023/10/02 16:10:57;;;;;;;18.50;13.32;;;;;;;;;;4996042;28;20469;-84
2023/10/02 16:13:23;;;;;;;19.88;14.00;;;;;;;;;;4996168;28;20031;-83
2023/10/02 16:15:48;;;;;;;20.13;14.32;;;;;;;;;;4995899;28;20432;-86
2023/10/02 16:18:14;;;;;;;19.50;13.93;;;;;;;;;;4996184;28;20059;-84
2023/10/02 16:20:39;;;;;;;19.70;14.10;;;;;;;;;;4996006;28;20478;-91
2023/10/02 16:23:05;;;;;;;19.60;13.80;;;;;;;;;;4995411;28;20409;-84
2023/10/02 16:25:31;;;;;;;20.38;15.20;;;;;;;;;;4995640;28;20101;-83
2023/10/02 16:27:57;;;;;;;20.17;14.35;;;;;;;;;;4995627;28;20473;-83
2023/10/02 16:30:24;;;;;;;19.05;14.07;;;;;;;;;;4995864;28;20074;-83
2023/10/02 16:32:52;;;;;;;22.52;14.43;;;;;;;;;;4996713;28;20043;-83
2023/10/02 16:35:30;;;;;;;17.65;14.32;;;;;;;;;;4995712;28;20421;-84
2023/10/02 16:38:01;;;;;;;21.20;14.90;;;;;;;;;;4995626;28;20022;-90
2023/10/02 16:40:26;;;;;;;21.52;14.63;;;;;;;;;;4995764;28;20030;-90
2023/10/02 16:42:53;;;;;;;17.25;13.82;;;;;;;;;;4995603;28;20495;-83
2023/10/02 16:45:19;;;;;;;19.45;13.68;;;;;;;;;;4995535;28;20482;-84
2023/10/02 16:47:46;;;;;;;22.10;16.40;;;;;;;;;;4994071;28;20370;-83
2023/10/02 16:50:15;;;;;;;23.95;17.80;;;;;;;;;;4995304;28;20026;-84
2023/10/02 16:52:44;;;;;;;21.42;16.05;;;;;;;;;;4995298;28;20034;-89
2023/10/02 16:55:18;;;;;;;;;;;;;;;;;;4995285;28;20050;-90
2023/10/02 16:57:44;;;;;;;21.38;15.82;;;;;;;;;;5010850;28;19921;-84
2023/10/02 17:00:14;;;;;;;21.20;14.48;;;;;;;;;;4993941;28;20461;-86
2023/10/02 17:02:43;;;;;;;18.25;14.00;;;;;;;;;;4994972;28;20371;-84
2023/10/02 17:05:10;;;;;;;18.45;14.68;;;;;;;;;;4994925;28;20018;-90
2023/10/02 17:07:37;;;;;;;22.35;14.68;;;;;;;;;;4995209;28;20057;-84
2023/10/02 17:10:03;;;;;;;107.30;32.33;;;;;;;;;;4995276;28;20454;-83
2023/10/02 17:12:28;;;;;;;80.57;28.30;;;;;;;;;;4994919;28;20029;-85
2023/10/02 17:14:54;;;;;;;96.10;30.63;;;;;;;;;;4994798;28;20022;-87
2023/10/02 17:17:19;;;;;;;119.78;35.08;;;;;;;;;;4994765;28;20026;-91
2023/10/02 17:19:45;;;;;;;51.90;21.50;;;;;;;;;;4995007;28;20102;-83
2023/10/02 17:22:10;;;;;;;45.50;20.13;;;;;;;;;;4994387;28;20046;-84
2023/10/02 17:24:36;;;;;;;25.00;15.45;;;;;;;;;;4996299;28;20041;-83
2023/10/02 17:27:02;;;;;;;23.13;15.60;;;;;;;;;;4996294;28;20037;-83
2023/10/02 17:29:27;;;;;;;21.95;13.88;;;;;;;;;;4994794;28;20026;-84
2023/10/02 17:31:53;;;;;;;25.55;16.48;;;;;;;;;;4994215;28;20029;-84
2023/10/02 17:34:18;;;;;;;23.65;15.77;;;;;;;;;;4994310;28;20054;-84
2023/10/02 17:36:44;;;;;;;19.58;14.43;;;;;;;;;;4994438;28;20461;-83
2023/10/02 17:39:09;;;;;;;21.60;15.40;;;;;;;;;;4994576;28;20022;-84
2023/10/02 17:41:36;;;;;;;19.40;14.25;;;;;;;;;;4993337;28;20030;-83
2023/10/02 17:44:03;;;;;;;20.08;14.88;;;;;;;;;;4993048;28;20440;-83
2023/10/02 17:46:29;;;;;;;21.77;15.73;;;;;;;;;;4993832;28;20026;-84
2023/10/02 17:48:54;;;;;;;22.80;15.68;;;;;;;;;;4994216;28;20030;-83
2023/10/02 17:51:20;;;;;;;19.67;14.70;;;;;;;;;;4994167;28;20034;-84
2023/10/02 17:53:45;;;;;;;19.38;15.77;;;;;;;;;;4994367;28;20026;-84
2023/10/02 17:56:11;;;;;;;21.60;14.80;;;;;;;;;;4994158;28;20096;-84
2023/10/02 17:58:36;;;;;;;19.08;15.13;;;;;;;;;;4994112;28;20380;-83
2023/10/02 18:01:03;;;;;;;21.63;16.10;;;;;;;;;;4994252;28;20035;-82
2023/10/02 18:03:31;;;;;;;20.48;15.60;;;;;;;;;;4994195;28;20026;-83
2023/10/02 18:05:57;;;;;;;21.30;15.48;;;;;;;;;;4994167;28;20033;-83
2023/10/02 18:08:24;;;;;;;20.90;15.38;;;;;;;;;;4994033;28;20026;-83
2023/10/02 18:10:51;;;;;;;20.33;15.43;;;;;;;;;;4994210;28;20026;-85
2023/10/02 18:13:16;;;;;;;21.20;15.65;;;;;;;;;;4994218;28;20027;-85
2023/10/02 18:15:43;;;;;;;20.92;16.20;;;;;;;;;;4994229;28;20037;-86
2023/10/02 18:18:09;;;;;;;20.05;15.50;;;;;;;;;;4992838;28;20448;-86
2023/10/02 18:20:38;;;;;;;21.10;16.25;;;;;;;;;;4994266;28;20030;-88
2023/10/02 18:23:04;;;;;;;21.58;16.02;;;;;;;;;;4993746;28;20070;-84
2023/10/02 18:25:29;;;;;;;18.27;14.90;;;;;;;;;;4993885;28;20073;-85
2023/10/02 18:27:56;;;;;;;18.13;14.93;;;;;;;;;;4994159;28;20062;-87
2023/10/02 18:30:23;;;;;;;21.02;15.38;;;;;;;;;;4994361;28;20080;-87
2023/10/02 18:32:48;;;;;;;20.55;15.30;;;;;;;;;;4994188;28;20358;-85
2023/10/02 18:35:14;;;;;;;18.88;15.25;;;;;;;;;;4993452;28;20035;-86
2023/10/02 18:37:41;;;;;;;21.38;15.45;;;;;;;;;;4993873;28;20038;-86
2023/10/02 18:40:08;;;;;;;20.90;15.55;;;;;;;;;;4992774;28;20033;-85
2023/10/02 18:42:35;;;;;;;23.13;15.35;;;;;;;;;;4993747;28;20376;-86
2023/10/02 18:45:00;;;;;;;19.58;15.23;;;;;;;;;;4993686;28;20477;-85
2023/10/02 18:47:26;;;;;;;23.17;16.42;;;;;;;;;;4994006;28;20076;-86
2023/10/02 18:49:51;;;;;;;20.02;15.98;;;;;;;;;;4993875;28;20061;-85
2023/10/02 18:52:17;;;;;;;18.20;14.63;;;;;;;;;;4994083;28;20465;-86
2023/10/02 18:54:43;;;;;;;20.60;15.82;;;;;;;;;;4994276;28;20034;-86
2023/10/02 18:57:08;;;;;;;23.98;16.00;;;;;;;;;;4995190;28;20101;-86
2023/10/02 18:59:34;;;;;;;23.00;16.23;;;;;;;;;;4997498;28;20037;-86
2023/10/02 19:02:00;;;;;;;22.02;15.70;;;;;;;;;;5012902;28;20053;-86
2023/10/02 19:04:25;;;;;;;20.02;15.48;;;;;;;;;;4997507;28;20030;-86
2023/10/02 19:06:51;;;;;;;18.73;14.82;;;;;;;;;;4997447;28;20026;-86
2023/10/02 19:09:20;;;;;;;23.52;15.70;;;;;;;;;;4997486;28;20154;-87
2023/10/02 19:11:46;;;;;;;22.23;16.02;;;;;;;;;;4997372;28;20378;-86
2023/10/02 19:14:12;;;;;;;20.52;15.43;;;;;;;;;;4995627;28;20042;-86
2023/10/02 19:16:38;;;;;;;19.58;14.60;;;;;;;;;;4997695;28;20022;-86
2023/10/02 19:19:04;;;;;;;21.20;15.23;;;;;;;;;;4997261;28;20032;-86
2023/10/02 19:21:30;;;;;;;19.98;15.38;;;;;;;;;;4997275;28;20125;-85
2023/10/02 19:23:56;;;;;;;20.10;15.10;;;;;;;;;;4997352;28;20351;-86
2023/10/02 19:26:22;;;;;;;20.63;17.00;;;;;;;;;;4996901;28;20038;-86
2023/10/02 19:28:48;;;;;;;19.80;14.93;;;;;;;;;;4995408;28;20023;-85
2023/10/02 19:31:13;;;;;;;20.35;15.38;;;;;;;;;;4997072;28;20109;-83
2023/10/02 19:33:39;;;;;;;18.05;14.73;;;;;;;;;;4997033;28;20488;-85
2023/10/02 19:36:05;;;;;;;22.20;16.02;;;;;;;;;;4996701;28;20109;-84
2023/10/02 19:38:31;;;;;;;19.77;15.88;;;;;;;;;;4996532;28;20030;-89
2023/10/02 19:40:57;;;;;;;19.65;15.05;;;;;;;;;;4996777;28;20027;-88
2023/10/02 19:43:26;;;;;;;21.17;15.63;;;;;;;;;;4996472;28;20030;-84
2023/10/02 19:45:52;;;;;;;23.20;17.05;;;;;;;;;;4995203;28;20022;-85
2023/10/02 19:48:18;;;;;;;21.85;16.30;;;;;;;;;;4996864;28;20117;-84
2023/10/02 19:50:45;;;;;;;21.83;16.02;;;;;;;;;;4996604;28;20539;-85
2023/10/02 19:53:12;;;;;;;24.05;16.23;;;;;;;;;;4996606;28;20076;-88
2023/10/02 19:55:38;;;;;;;22.83;16.48;;;;;;;;;;4996127;28;20030;-83
2023/10/02 19:58:03;;;;;;;22.63;17.00;;;;;;;;;;4996216;28;20029;-84
2023/10/02 20:00:29;;;;;;;22.15;16.35;;;;;;;;;;4996327;28;20029;-85
2023/10/02 20:02:56;;;;;;;21.10;16.35;;;;;;;;;;5011260;28;20030;-86
2023/10/02 20:05:22;;;;;;;21.38;15.88;;;;;;;;;;4996156;28;20049;-84
2023/10/02 20:07:47;;;;;;;22.88;16.92;;;;;;;;;;4996377;28;20493;-87
2023/10/02 20:10:14;;;;;;;21.85;17.08;;;;;;;;;;4996059;28;20030;-84
2023/10/02 20:12:47;;;;;;;20.20;17.13;;;;;;;;;;4996265;28;20026;-84
2023/10/02 20:15:14;;;;;;;22.52;16.80;;;;;;;;;;4996118;28;20084;-85
2023/10/02 20:17:39;;;;;;;22.02;16.45;;;;;;;;;;4996091;28;20029;-84
2023/10/02 20:20:08;;;;;;;20.38;15.77;;;;;;;;;;4996034;28;20101;-86
2023/10/02 20:22:36;;;;;;;21.70;16.15;;;;;;;;;;4995619;28;20057;-83
2023/10/02 20:25:08;;;;;;;21.90;16.17;;;;;;;;;;4995711;28;20093;-84
2023/10/02 20:27:35;;;;;;;21.33;15.98;;;;;;;;;;4995750;28;20477;-84
2023/10/02 20:30:01;;;;;;;20.70;16.52;;;;;;;;;;4995819;28;20369;-84
2023/10/02 20:32:26;;;;;;;20.15;15.60;;;;;;;;;;4995868;28;20025;-84
2023/10/02 20:34:54;;;;;;;21.48;16.90;;;;;;;;;;4995569;28;20034;-84
2023/10/02 20:37:20;;;;;;;24.40;18.73;;;;;;;;;;4995565;28;20031;-84
2023/10/02 20:39:46;;;;;;;25.58;18.65;;;;;;;;;;4995974;28;20110;-84
2023/10/02 20:42:11;;;;;;;22.70;17.95;;;;;;;;;;4995444;28;20047;-84
2023/10/02 20:44:37;;;;;;;25.65;18.70;;;;;;;;;;4995609;28;20398;-84
2023/10/02 20:47:03;;;;;;;21.60;17.13;;;;;;;;;;4995704;28;20077;-84
2023/10/02 20:49:28;;;;;;;25.15;18.38;;;;;;;;;;4995449;28;20026;-86
2023/10/02 20:51:54;;;;;;;30.63;19.48;;;;;;;;;;4995533;28;20026;-84
2023/10/02 20:54:19;;;;;;;26.02;18.58;;;;;;;;;;4995145;28;20066;-85
2023/10/02 20:56:44;;;;;;;23.30;17.75;;;;;;;;;;4995309;28;20399;-84
2023/10/02 20:59:20;;;;;;;23.27;18.08;;;;;;;;;;4995190;28;20027;-84
2023/10/02 21:01:46;;;;;;;23.35;18.08;;;;;;;;;;4995159;28;20027;-85
2023/10/02 21:04:12;;;;;;;23.30;18.05;;;;;;;;;;4995078;28;20154;-85
2023/10/02 21:06:37;;;;;;;25.63;18.83;;;;;;;;;;4995194;28;20069;-84
2023/10/02 21:09:04;;;;;;;24.30;18.40;;;;;;;;;;4994954;28;20084;-84
2023/10/02 21:11:32;;;;;;;25.38;19.08;;;;;;;;;;4995016;28;20022;-85
2023/10/02 21:13:58;;;;;;;27.42;19.48;;;;;;;;;;4994904;28;20075;-84
2023/10/02 21:16:23;;;;;;;25.98;19.58;;;;;;;;;;4994765;28;20066;-84
2023/10/02 21:18:49;;;;;;;27.02;20.15;;;;;;;;;;4994747;28;20033;-85
2023/10/02 21:21:15;;;;;;;25.40;18.73;;;;;;;;;;4993055;28;20053;-85
2023/10/02 21:23:41;;;;;;;25.90;18.60;;;;;;;;;;4993440;28;20061;-84
2023/10/02 21:26:07;;;;;;;23.08;18.42;;;;;;;;;;4994623;28;20062;-85
2023/10/02 21:28:33;;;;;;;24.63;18.13;;;;;;;;;;4994844;28;20030;-85
2023/10/02 21:30:59;;;;;;;23.48;18.38;;;;;;;;;;4995060;28;20030;-84
2023/10/02 21:33:26;;;;;;;28.20;21.17;;;;;;;;;;4994870;28;20026;-84
2023/10/02 21:35:59;;;;;;;23.27;18.15;;;;;;;;;;4994259;28;20559;-84
2023/10/02 21:38:26;;;;;;;28.45;20.38;;;;;;;;;;4994711;28;20169;-85
2023/10/02 21:40:52;;;;;;;24.20;19.88;;;;;;;;;;4994641;28;20409;-85
2023/10/02 21:43:20;;;;;;;24.38;19.70;;;;;;;;;;4994763;28;20030;-85
2023/10/02 21:45:46;;;;;;;25.52;18.85;;;;;;;;;;4994339;28;20105;-85
2023/10/02 21:48:11;;;;;;;26.50;20.45;;;;;;;;;;4994618;28;20065;-86
2023/10/02 21:50:36;;;;;;;26.85;20.77;;;;;;;;;;4994643;28;20058;-85
2023/10/02 21:53:03;;;;;;;27.65;20.17;;;;;;;;;;5009605;28;20062;-85
2023/10/02 21:55:29;;;;;;;20.20;16.58;;;;;;;;;;4993085;28;20034;-87
2023/10/02 21:57:55;;;;;;;21.95;16.33;;;;;;;;;;4994315;28;20461;-85
2023/10/02 22:01:09;;;;;;;22.80;17.00;;;;;;;;;;4994511;28;20122;-86
2023/10/02 22:03:06;;;;;;;22.42;16.52;;;;;;;;;;4993446;28;20043;-86
2023/10/02 22:05:32;;;;;;;22.52;17.25;;;;;;;;;;4994131;28;20040;-85
2023/10/02 22:07:57;;;;;;;22.05;17.77;;;;;;;;;;4994291;28;20061;-86
2023/10/02 22:10:27;;;;;;;23.30;19.00;;;;;;;;;;4994165;28;20033;-85
2023/10/02 22:12:53;;;;;;;26.00;19.58;;;;;;;;;;4994282;28;20026;-85
2023/10/02 22:15:21;;;;;;;25.75;19.35;;;;;;;;;;5009153;28;20034;-86
2023/10/02 22:17:48;;;;;;;28.38;21.70;;;;;;;;;;4994365;28;20022;-86
2023/10/02 22:20:15;;;;;;;26.73;20.27;;;;;;;;;;5009161;28;20022;-86